createdAt,value
2022-11-28T00:01:21.227Z,6.96
2022-11-28T00:03:53.713Z,7.03
2022-11-28T00:06:26.757Z,7.07
2022-11-28T00:09:00.929Z,7.08
2022-11-28T00:11:33.408Z,7.05
2022-11-28T00:14:05.989Z,7.06
2022-11-28T00:16:38.594Z,7.09
2022-11-28T00:19:11.755Z,7.09
2022-11-28T00:21:44.777Z,7.03
2022-11-28T00:24:17.231Z,7.00
2022-11-28T00:26:49.717Z,7.01
2022-11-28T00:29:22.552Z,7.02
2022-11-28T00:31:55.209Z,7.01
2022-11-28T00:34:27.882Z,6.97
2022-11-28T00:37:00.602Z,6.90
2022-11-28T00:39:31.485Z,6.82
2022-11-28T00:42:04.007Z,6.77
2022-11-28T00:44:36.931Z,6.73
2022-11-28T00:47:07.731Z,6.69
2022-11-28T00:49:40.283Z,6.69
2022-11-28T00:52:12.980Z,6.70
2022-11-28T00:54:45.470Z,6.70
2022-11-28T00:57:17.879Z,6.69
2022-11-28T00:59:50.403Z,6.71
2022-11-28T01:02:22.922Z,6.75
2022-11-28T01:04:55.529Z,6.82
2022-11-28T01:07:28.771Z,6.84
2022-11-28T01:10:01.478Z,6.85
2022-11-28T01:12:34.002Z,6.89
2022-11-28T01:15:07.784Z,6.94
2022-11-28T01:17:40.445Z,6.99
2022-11-28T01:20:15.054Z,7.01
2022-11-28T01:22:47.456Z,6.97
2022-11-28T01:25:19.915Z,6.94
2022-11-28T01:27:52.457Z,6.90
2022-11-28T01:30:24.972Z,6.90
2022-11-28T01:32:57.551Z,6.90
2022-11-28T01:35:30.053Z,6.86
2022-11-28T01:38:02.445Z,6.80
2022-11-28T01:40:34.942Z,6.75
2022-11-28T01:43:10.327Z,6.80
2022-11-28T01:45:43.016Z,6.85
2022-11-28T01:48:19.955Z,6.84
2022-11-28T01:50:56.329Z,6.79
2022-11-28T01:53:29.768Z,6.80
2022-11-28T01:56:05.017Z,6.79
2022-11-28T01:58:39.966Z,6.75
2022-11-28T02:01:13.314Z,6.74
2022-11-28T02:03:47.720Z,6.71
2022-11-28T02:06:21.905Z,6.70
2022-11-28T02:08:55.476Z,6.72
2022-11-28T02:11:52.203Z,6.67
2022-11-28T02:14:35.788Z,6.64
2022-11-28T02:17:15.684Z,6.67
2022-11-28T02:20:23.037Z,6.66
2022-11-28T02:23:02.371Z,6.60
2022-11-28T02:26:05.908Z,6.57
2022-11-28T02:29:03.419Z,6.57
2022-11-28T02:32:11.501Z,6.53
2022-11-28T02:34:50.061Z,6.53
2022-11-28T02:37:30.633Z,6.55
2022-11-28T02:40:10.723Z,6.43
2022-11-28T02:42:51.463Z,6.36
2022-11-28T02:45:29.264Z,6.31
2022-11-28T02:48:05.538Z,6.30
2022-11-28T02:50:42.087Z,6.28
2022-11-28T02:53:17.611Z,6.28
2022-11-28T02:55:52.435Z,6.28
2022-11-28T02:58:24.929Z,6.26
2022-11-28T03:00:57.870Z,6.27
2022-11-28T03:03:41.269Z,6.20
2022-11-28T03:06:20.314Z,6.13
2022-11-28T03:09:11.492Z,6.10
2022-11-28T03:11:51.258Z,6.13
2022-11-28T03:14:33.263Z,6.18
2022-11-28T03:17:12.244Z,6.13
2022-11-28T03:19:48.480Z,6.17
2022-11-28T03:22:28.114Z,6.20
2022-11-28T03:25:14.107Z,6.24
2022-11-28T03:27:48.495Z,6.29
2022-11-28T03:30:25.587Z,6.32
2022-11-28T03:32:59.457Z,6.37
2022-11-28T03:35:34.775Z,6.44
2022-11-28T03:38:11.457Z,6.49
2022-11-28T03:40:46.884Z,6.45
2022-11-28T03:43:23.604Z,6.45
2022-11-28T03:46:00.251Z,6.47
2022-11-28T03:48:35.886Z,6.48
2022-11-28T03:51:10.976Z,6.47
2022-11-28T03:53:52.198Z,6.37
2022-11-28T03:56:27.992Z,6.25
2022-11-28T03:59:03.518Z,6.21
2022-11-28T04:01:41.273Z,6.24
2022-11-28T04:04:17.590Z,6.26
2022-11-28T04:06:57.156Z,6.27
2022-11-28T04:09:41.072Z,6.18
2022-11-28T04:12:22.449Z,6.06
2022-11-28T04:14:57.379Z,6.01
2022-11-28T04:17:33.687Z,5.99
2022-11-28T04:20:10.030Z,5.98
2022-11-28T04:22:47.826Z,5.94
2022-11-28T04:25:23.060Z,5.93
2022-11-28T04:27:59.240Z,5.93
2022-11-28T04:30:31.752Z,5.94
2022-11-28T04:33:07.522Z,5.91
2022-11-28T04:35:41.493Z,5.87
2022-11-28T04:38:15.192Z,5.81
2022-11-28T04:40:52.548Z,5.82
2022-11-28T04:43:38.657Z,5.80
2022-11-28T04:46:14.533Z,5.82
2022-11-28T04:48:47.290Z,5.83
2022-11-28T04:51:18.967Z,5.79
2022-11-28T04:53:55.805Z,5.68
2022-11-28T04:56:32.937Z,5.62
2022-11-28T04:59:08.777Z,5.57
2022-11-28T05:01:42.090Z,5.56
2022-11-28T05:04:17.307Z,5.56
2022-11-28T05:06:50.239Z,5.53
2022-11-28T05:09:21.045Z,5.49
2022-11-28T05:11:53.973Z,5.46
2022-11-28T05:14:26.741Z,5.45
2022-11-28T05:16:57.687Z,5.47
2022-11-28T05:19:30.154Z,5.45
2022-11-28T05:22:02.631Z,5.49
2022-11-28T05:24:35.171Z,5.49
2022-11-28T05:27:08.052Z,5.50
2022-11-28T05:29:46.821Z,5.54
2022-11-28T05:32:21.960Z,5.51
2022-11-28T05:34:54.628Z,5.50
2022-11-28T05:37:27.166Z,5.53
2022-11-28T05:39:59.705Z,5.53
2022-11-28T05:42:35.036Z,5.55
2022-11-28T05:45:08.947Z,5.58
2022-11-28T05:47:41.477Z,5.67
2022-11-28T05:50:14.722Z,5.76
2022-11-28T05:52:47.262Z,5.82
2022-11-28T05:55:20.562Z,5.82
2022-11-28T05:57:54.046Z,5.81
2022-11-28T06:00:29.716Z,5.76
2022-11-28T06:03:07.097Z,5.75
2022-11-28T06:05:43.847Z,5.77
2022-11-28T06:08:18.627Z,5.79
2022-11-28T06:10:59.818Z,5.77
2022-11-28T06:13:34.294Z,5.74
2022-11-28T06:16:11.012Z,5.76
2022-11-28T06:18:44.196Z,5.77
2022-11-28T06:21:17.804Z,5.68
2022-11-28T06:23:50.625Z,5.60
2022-11-28T06:26:24.732Z,5.62
2022-11-28T06:28:58.927Z,5.64
2022-11-28T06:31:34.811Z,5.63
2022-11-28T06:34:08.011Z,5.57
2022-11-28T06:36:46.012Z,5.51
2022-11-28T06:39:24.568Z,5.47
2022-11-28T06:41:57.075Z,5.47
2022-11-28T06:44:31.726Z,5.40
2022-11-28T06:47:04.218Z,5.37
2022-11-28T06:49:36.995Z,5.36
2022-11-28T06:52:08.081Z,5.33
2022-11-28T06:54:40.743Z,5.29
2022-11-28T06:57:14.298Z,5.25
2022-11-28T06:59:47.006Z,5.19
2022-11-28T07:02:19.585Z,5.15
2022-11-28T07:04:52.658Z,5.13
2022-11-28T07:07:27.502Z,5.15
2022-11-28T07:10:08.978Z,5.19
2022-11-28T07:12:45.033Z,5.24
2022-11-28T07:15:18.272Z,5.26
2022-11-28T07:17:51.747Z,5.26
2022-11-28T07:20:27.069Z,5.26
2022-11-28T07:23:02.294Z,5.24
2022-11-28T07:25:35.442Z,5.23
2022-11-28T07:28:08.525Z,5.20
2022-11-28T07:30:41.466Z,5.25
2022-11-28T07:33:14.243Z,5.18
2022-11-28T07:35:47.017Z,5.18
2022-11-28T07:38:17.812Z,5.17
2022-11-28T07:40:50.703Z,5.18
2022-11-28T07:43:23.808Z,5.22
2022-11-28T07:46:01.120Z,5.27
2022-11-28T07:48:34.789Z,5.28
2022-11-28T07:51:11.021Z,5.25
2022-11-28T07:53:44.060Z,5.25
2022-11-28T07:56:20.759Z,5.27
2022-11-28T07:58:54.469Z,5.26
2022-11-28T08:01:31.053Z,5.29
2022-11-28T08:04:04.017Z,5.33
2022-11-28T08:06:39.640Z,5.32
2022-11-28T08:09:13.788Z,5.32
2022-11-28T08:11:48.377Z,5.30
2022-11-28T08:14:25.745Z,5.26
2022-11-28T08:16:58.460Z,5.20
2022-11-28T08:19:37.374Z,5.13
2022-11-28T08:22:12.495Z,5.17
2022-11-28T08:24:51.400Z,5.21
2022-11-28T08:27:43.686Z,5.27
2022-11-28T08:30:22.890Z,5.33
2022-11-28T08:33:09.914Z,5.39
2022-11-28T08:35:48.806Z,5.46
2022-11-28T08:38:26.508Z,5.48
2022-11-28T08:41:05.446Z,5.51
2022-11-28T08:43:46.607Z,5.59
2022-11-28T08:46:38.624Z,5.65
2022-11-28T08:49:18.589Z,5.64
2022-11-28T08:51:53.427Z,5.65
2022-11-28T08:54:28.604Z,5.70
2022-11-28T08:57:10.210Z,5.66
2022-11-28T08:59:49.779Z,5.63
2022-11-28T09:02:25.914Z,5.66
2022-11-28T09:05:07.718Z,5.68
2022-11-28T09:07:40.362Z,5.61
2022-11-28T09:10:13.945Z,5.59
2022-11-28T09:12:48.196Z,5.55
2022-11-28T09:15:25.152Z,5.51
2022-11-28T09:17:58.233Z,5.50
2022-11-28T09:20:31.334Z,5.49
2022-11-28T09:23:03.957Z,5.50
2022-11-28T09:25:37.987Z,5.53
2022-11-28T09:28:10.619Z,5.62
2022-11-28T09:30:43.363Z,5.70
2022-11-28T09:33:15.993Z,5.82
2022-11-28T09:35:48.646Z,5.92
2022-11-28T09:38:21.524Z,6.00
2022-11-28T09:40:54.776Z,6.05
2022-11-28T09:43:32.914Z,6.10
2022-11-28T09:46:07.638Z,6.18
2022-11-28T09:48:43.182Z,6.24
2022-11-28T09:51:31.291Z,6.32
2022-11-28T09:54:11.292Z,6.48
2022-11-28T09:56:43.909Z,6.65
2022-11-28T09:59:20.956Z,6.78
2022-11-28T10:02:00.813Z,6.99
2022-11-28T10:04:39.538Z,7.15
2022-11-28T10:07:17.240Z,7.23
2022-11-28T10:09:57.638Z,7.14
2022-11-28T10:12:39.511Z,7.10
2022-11-28T10:15:22.130Z,7.18
2022-11-28T10:18:06.095Z,7.23
2022-11-28T10:20:40.881Z,7.25
2022-11-28T10:23:21.469Z,7.26
2022-11-28T10:25:56.282Z,7.23
2022-11-28T10:28:31.221Z,7.28
2022-11-28T10:31:05.786Z,7.27
2022-11-28T10:33:45.198Z,7.26
2022-11-28T10:36:22.801Z,7.24
2022-11-28T10:38:55.871Z,7.19
2022-11-28T10:41:33.217Z,7.12
2022-11-28T10:44:09.031Z,7.10
2022-11-28T10:46:52.917Z,7.13
2022-11-28T10:49:33.933Z,7.29
2022-11-28T10:52:13.955Z,7.53
2022-11-28T10:55:04.262Z,7.68
2022-11-28T10:57:40.731Z,7.77
2022-11-28T11:00:15.417Z,7.80
2022-11-28T11:02:49.817Z,7.79
2022-11-28T11:05:25.830Z,7.76
2022-11-28T11:08:00.155Z,7.80
2022-11-28T11:10:37.984Z,7.74
2022-11-28T11:13:19.342Z,7.71
2022-11-28T11:15:53.569Z,7.69
2022-11-28T11:18:28.615Z,7.68
2022-11-28T11:21:15.659Z,7.68
2022-11-28T11:23:50.035Z,7.68
2022-11-28T11:26:43.890Z,7.73
2022-11-28T11:29:35.543Z,7.72
2022-11-28T11:32:18.059Z,7.65
2022-11-28T11:34:50.715Z,7.65
2022-11-28T11:37:25.454Z,7.69
2022-11-28T11:39:58.065Z,7.67
2022-11-28T11:42:32.876Z,7.66
2022-11-28T11:45:27.632Z,7.61
2022-11-28T11:48:00.729Z,7.63
2022-11-28T11:50:36.357Z,7.54
2022-11-28T11:53:14.154Z,7.41
2022-11-28T11:55:51.553Z,7.31
2022-11-28T11:58:27.142Z,7.37
2022-11-28T12:01:01.706Z,7.45
2022-11-28T12:03:38.303Z,7.38
2022-11-28T12:06:15.781Z,7.29
2022-11-28T12:08:52.843Z,7.20
2022-11-28T12:11:29.525Z,7.17
2022-11-28T12:14:11.472Z,7.16
2022-11-28T12:16:50.416Z,7.14
2022-11-28T12:19:27.954Z,7.15
2022-11-28T12:22:09.071Z,7.14
2022-11-28T12:24:49.639Z,7.14
2022-11-28T12:27:31.341Z,7.15
2022-11-28T12:30:26.913Z,7.13
2022-11-28T12:33:08.945Z,7.15
2022-11-28T12:35:44.184Z,7.09
2022-11-28T12:38:31.509Z,7.07
2022-11-28T12:41:20.352Z,7.07
2022-11-28T12:44:03.920Z,7.00
2022-11-28T12:46:45.422Z,7.04
2022-11-28T12:49:21.596Z,7.08
2022-11-28T12:52:03.139Z,7.14
2022-11-28T12:54:48.975Z,7.15
2022-11-28T12:57:26.733Z,7.19
2022-11-28T13:00:08.484Z,7.15
2022-11-28T13:02:54.800Z,7.12
2022-11-28T13:05:48.940Z,7.07
2022-11-28T13:08:49.743Z,7.04
2022-11-28T13:11:40.135Z,7.08
2022-11-28T13:14:20.093Z,7.13
2022-11-28T13:16:54.170Z,7.15
2022-11-28T13:19:36.145Z,7.17
2022-11-28T13:22:13.301Z,7.23
2022-11-28T13:24:52.666Z,7.27
2022-11-28T13:27:33.383Z,7.19
2022-11-28T13:30:16.066Z,7.16
2022-11-28T13:32:53.231Z,7.17
2022-11-28T13:35:26.664Z,7.14
2022-11-28T13:41:01.120Z,7.20
2022-11-28T13:43:43.335Z,7.25
2022-11-28T13:46:17.574Z,7.32
2022-11-28T13:52:26.213Z,7.16
2022-11-28T13:54:59.159Z,6.96
2022-11-28T13:57:36.853Z,6.84
2022-11-28T14:00:23.902Z,6.81
2022-11-28T14:03:00.184Z,6.83
2022-11-28T14:05:35.304Z,6.83
2022-11-28T14:08:08.959Z,6.86
2022-11-28T14:11:05.938Z,6.81
2022-11-28T14:14:01.162Z,6.79
2022-11-28T14:16:50.138Z,6.72
2022-11-28T14:19:34.643Z,6.68
2022-11-28T14:22:17.228Z,6.65
2022-11-28T14:24:58.621Z,6.69
2022-11-28T14:27:34.662Z,6.70
2022-11-28T14:30:09.557Z,6.61
2022-11-28T14:32:43.499Z,6.60
2022-11-28T14:35:23.208Z,6.64
2022-11-28T14:37:57.774Z,6.69
2022-11-28T14:41:09.277Z,6.68
2022-11-28T14:43:42.925Z,6.68
2022-11-28T14:46:34.026Z,6.65
2022-11-28T14:49:24.150Z,6.57
2022-11-28T14:52:41.797Z,6.53
2022-11-28T14:55:25.406Z,6.47
2022-11-28T14:57:59.664Z,6.41
2022-11-28T15:00:36.582Z,6.29
2022-11-28T15:03:26.551Z,6.18
2022-11-28T15:06:03.871Z,6.12
2022-11-28T15:08:45.599Z,6.15
2022-11-28T15:11:58.729Z,6.19
2022-11-28T15:14:32.893Z,6.08
2022-11-28T15:17:08.398Z,5.96
2022-11-28T15:19:44.985Z,5.94
2022-11-28T15:22:31.884Z,5.95
2022-11-28T15:25:04.813Z,5.93
2022-11-28T15:27:38.583Z,5.86
2022-11-28T15:30:20.940Z,5.79
2022-11-28T15:32:53.703Z,5.77
2022-11-28T15:35:26.478Z,5.75
2022-11-28T15:38:00.953Z,5.74
2022-11-28T15:40:37.774Z,5.76
2022-11-28T15:43:20.129Z,5.78
2022-11-28T15:45:59.155Z,5.76
2022-11-28T15:48:40.147Z,5.77
2022-11-28T15:51:32.380Z,5.80
2022-11-28T15:54:19.797Z,5.85
2022-11-28T15:57:15.053Z,5.89
2022-11-28T16:01:07.777Z,5.96
2022-11-28T16:03:38.814Z,5.96
2022-11-28T16:06:12.585Z,6.01
2022-11-28T16:08:54.142Z,6.02
2022-11-28T16:11:32.057Z,5.98
2022-11-28T16:14:10.658Z,5.93
2022-11-28T16:16:56.172Z,5.84
2022-11-28T16:19:40.850Z,5.84
2022-11-28T16:22:21.137Z,5.83
2022-11-28T16:25:23.183Z,5.85
2022-11-28T16:28:33.459Z,5.77
2022-11-28T16:31:29.697Z,5.78
2022-11-28T16:34:12.840Z,5.76
2022-11-28T16:36:48.949Z,5.68
2022-11-28T16:39:21.753Z,5.68
2022-11-28T16:42:07.403Z,5.69
2022-11-28T16:44:40.516Z,5.71
2022-11-28T16:47:30.210Z,5.69
2022-11-28T16:50:20.399Z,5.66
2022-11-28T16:52:55.174Z,5.63
2022-11-28T16:55:46.963Z,5.57
2022-11-28T16:58:23.502Z,5.48
2022-11-28T17:01:05.513Z,5.50
2022-11-28T17:03:52.742Z,5.48
2022-11-28T17:06:34.117Z,5.38
2022-11-28T17:09:08.463Z,5.29
2022-11-28T17:11:44.945Z,5.22
2022-11-28T17:14:18.038Z,5.15
2022-11-28T17:16:50.868Z,5.13
2022-11-28T17:19:21.709Z,5.13
2022-11-28T17:22:07.052Z,5.08
2022-11-28T17:24:49.187Z,5.08
2022-11-28T17:27:27.572Z,5.10
2022-11-28T17:30:01.530Z,5.10
2022-11-28T17:32:33.995Z,5.03
2022-11-28T17:35:07.562Z,5.01
2022-11-28T17:37:40.333Z,5.03
2022-11-28T17:40:34.685Z,5.04
2022-11-28T17:43:18.060Z,4.97
2022-11-28T17:52:50.346Z,4.94
2022-11-28T17:55:25.564Z,4.90
2022-11-28T18:01:49.553Z,4.90
2022-11-28T18:04:25.745Z,4.91
2022-11-28T18:06:58.343Z,4.90
2022-11-28T18:09:31.033Z,4.89
2022-11-28T18:12:02.139Z,4.91
2022-11-28T18:14:39.916Z,4.94
2022-11-28T18:17:14.680Z,4.95
2022-11-28T18:19:52.025Z,4.96
2022-11-28T18:22:34.236Z,4.94
2022-11-28T18:25:20.295Z,4.96
2022-11-28T18:27:53.518Z,4.97
2022-11-28T18:30:38.151Z,4.94
2022-11-28T18:33:43.973Z,4.90
2022-11-28T18:36:23.349Z,4.88
2022-11-28T18:38:59.080Z,4.90
2022-11-28T18:41:32.678Z,4.93
2022-11-28T18:44:06.646Z,4.93
2022-11-28T18:46:43.259Z,4.90
2022-11-28T18:49:26.521Z,4.88
2022-11-28T18:52:37.175Z,4.92
2022-11-28T18:55:20.828Z,4.92
2022-11-28T18:57:57.278Z,4.90
2022-11-28T19:00:42.369Z,4.92
2022-11-28T19:03:18.210Z,4.87
2022-11-28T19:05:53.431Z,4.81
2022-11-28T19:08:25.983Z,4.80
2022-11-28T19:10:58.605Z,4.81
2022-11-28T19:13:31.338Z,4.83
2022-11-28T19:16:07.894Z,4.80
2022-11-28T19:18:42.033Z,4.81
2022-11-28T19:21:21.345Z,4.85
2022-11-28T19:23:55.475Z,4.92
2022-11-28T19:26:29.626Z,4.87
2022-11-28T19:29:04.438Z,4.88
2022-11-28T19:31:38.861Z,4.89
2022-11-28T19:34:16.056Z,4.87
2022-11-28T19:36:51.128Z,4.82
2022-11-28T19:39:25.068Z,4.84
2022-11-28T19:41:58.042Z,4.84
2022-11-28T19:44:29.929Z,4.77
2022-11-28T19:47:02.636Z,4.71
2022-11-28T19:49:35.165Z,4.70
2022-11-28T19:52:07.733Z,4.73
2022-11-28T19:54:40.305Z,4.69
2022-11-28T19:57:13.111Z,4.72
2022-11-28T19:59:46.132Z,4.79
2022-11-28T20:02:21.685Z,4.76
2022-11-28T20:04:55.572Z,4.76
2022-11-28T20:07:28.793Z,4.71
2022-11-28T20:10:02.866Z,4.71
2022-11-28T20:12:36.821Z,4.66
2022-11-28T20:15:16.720Z,4.61
2022-11-28T20:17:51.059Z,4.57
2022-11-28T20:20:23.769Z,4.57
2022-11-28T20:22:57.647Z,4.57
2022-11-28T20:25:30.349Z,4.62
2022-11-28T20:28:04.309Z,4.70
2022-11-28T20:30:41.173Z,4.74
2022-11-28T20:33:13.808Z,4.62
2022-11-28T20:35:46.327Z,4.53
2022-11-28T20:38:20.475Z,4.49
2022-11-28T20:40:53.154Z,4.49
2022-11-28T20:43:30.333Z,4.51
2022-11-28T20:46:07.833Z,4.59
2022-11-28T20:48:42.411Z,4.63
2022-11-28T20:51:17.762Z,4.68
2022-11-28T20:53:50.465Z,4.66
2022-11-28T20:56:24.681Z,4.63
2022-11-28T20:58:58.606Z,4.56
2022-11-28T21:01:34.196Z,4.60
2022-11-28T21:04:08.478Z,4.66
2022-11-28T21:06:41.907Z,4.70
2022-11-28T21:09:14.483Z,4.66
2022-11-28T21:11:57.275Z,4.66
2022-11-28T21:14:30.898Z,4.66
2022-11-28T21:17:04.159Z,4.62
2022-11-28T21:19:36.826Z,4.65
2022-11-28T21:22:09.270Z,4.68
2022-11-28T21:24:41.769Z,4.74
2022-11-28T21:27:14.282Z,4.80
2022-11-28T21:29:47.030Z,4.88
2022-11-28T21:32:18.113Z,4.94
2022-11-28T21:34:53.469Z,4.88
2022-11-28T21:37:26.105Z,4.84
2022-11-28T21:40:00.246Z,4.76
2022-11-28T21:42:34.274Z,4.64
2022-11-28T21:45:07.860Z,4.61
2022-11-28T21:47:40.536Z,4.67
2022-11-28T21:50:15.426Z,4.72
2022-11-28T21:52:48.168Z,4.73
2022-11-28T21:55:20.849Z,4.72
2022-11-28T21:57:53.852Z,4.69
2022-11-28T22:00:52.154Z,4.67
2022-11-28T22:03:19.089Z,4.56
2022-11-28T22:05:52.891Z,4.52
2022-11-28T22:08:25.241Z,4.51
2022-11-28T22:11:01.102Z,4.52
2022-11-28T22:13:34.008Z,4.54
2022-11-28T22:16:05.688Z,4.59
2022-11-28T22:18:38.293Z,4.63
2022-11-28T22:21:49.408Z,4.61
2022-11-28T22:24:02.584Z,4.55
2022-11-28T22:26:35.482Z,4.53
2022-11-28T22:29:08.077Z,4.52
2022-11-28T22:31:40.505Z,4.51
2022-11-28T22:34:13.634Z,4.50
2022-11-28T22:36:45.979Z,4.38
2022-11-28T22:39:18.382Z,4.38
2022-11-28T22:41:50.787Z,4.38
2022-11-28T22:44:23.288Z,4.37
2022-11-28T22:46:55.711Z,4.36
2022-11-28T22:49:28.139Z,4.41
2022-11-28T22:52:00.569Z,4.42
2022-11-28T22:54:33.108Z,4.35
2022-11-28T22:57:05.661Z,4.30
2022-11-28T22:59:38.709Z,4.27
2022-11-28T23:02:11.239Z,4.24
2022-11-28T23:04:42.789Z,4.21
2022-11-28T23:07:16.041Z,4.22
2022-11-28T23:09:48.528Z,4.28
2022-11-28T23:12:20.973Z,4.33
2022-11-28T23:14:53.386Z,4.34
2022-11-28T23:17:26.121Z,4.36
2022-11-28T23:19:58.524Z,4.37
2022-11-28T23:22:30.982Z,4.36
2022-11-28T23:25:03.403Z,4.30
2022-11-28T23:27:35.873Z,4.26
2022-11-28T23:30:10.354Z,4.19
2022-11-28T23:32:42.970Z,4.15
2022-11-28T23:35:15.539Z,4.13
2022-11-28T23:37:47.998Z,4.19
2022-11-28T23:40:20.667Z,4.23
2022-11-28T23:42:53.205Z,4.21
2022-11-28T23:45:25.680Z,4.23
2022-11-28T23:47:58.113Z,4.23
2022-11-28T23:50:32.087Z,4.18
2022-11-28T23:53:04.519Z,4.19
2022-11-28T23:55:37.644Z,4.24
2022-11-28T23:58:10.217Z,4.26
